Time;durP1;ratioP1;P1;durP2;ratioP2;P2;SDS_P1;SDS_P2;PMS_P1;PMS_P2;Temp;Humidity;BMP_temperature;BMP_pressure;BME280_temperature;BME280_humidity;BME280_pressure;Samples;Min_cycle;Max_cycle;Signal;HPM_P1;HPM_P2
2024/01/04 00:02:11;;;;;;;14.50;4.50;;;;;;;7.60;100.00;99342.50;4875364;29;20163;-75
2024/01/04 00:04:39;;;;;;;17.48;4.40;;;;;;;7.60;100.00;99347.84;4885521;29;20135;-75
2024/01/04 00:07:04;;;;;;;12.35;3.97;;;;;;;7.60;100.00;99347.84;4878608;29;20114;-75
2024/01/04 00:09:31;;;;;;;18.13;4.75;;;;;;;7.62;100.00;99345.88;4880360;29;20124;-75
2024/01/04 00:11:57;;;;;;;20.52;4.57;;;;;;;7.63;100.00;99360.09;4882218;29;20028;-75
2024/01/04 00:14:22;;;;;;;17.02;4.57;;;;;;;7.66;100.00;99370.53;4879903;29;20025;-75
2024/01/04 00:16:47;;;;;;;19.92;4.75;;;;;;;7.64;100.00;99376.00;4884440;29;20439;-75
2024/01/04 00:19:13;;;;;;;17.13;4.45;;;;;;;7.64;100.00;99385.84;4881579;29;20025;-75
2024/01/04 00:21:38;;;;;;;20.90;4.18;;;;;;;7.63;100.00;99397.53;4876682;29;20100;-75
2024/01/04 00:24:04;;;;;;;14.13;4.57;;;;;;;7.61;100.00;99402.97;4881126;29;20113;-75
2024/01/04 00:26:29;;;;;;;14.02;3.97;;;;;;;7.58;100.00;99408.59;4874809;29;20427;-75
2024/01/04 00:28:54;;;;;;;14.73;4.15;;;;;;;7.56;100.00;99410.56;4875482;29;20037;-74
2024/01/04 00:31:20;;;;;;;12.18;3.60;;;;;;;7.60;100.00;99412.00;4879405;29;20041;-75
2024/01/04 00:33:45;;;;;;;11.25;3.03;;;;;;;7.55;100.00;99429.41;4879672;29;20036;-75
2024/01/04 00:36:11;;;;;;;17.35;4.18;;;;;;;7.53;100.00;99435.72;4879985;29;20136;-74
2024/01/04 00:38:36;;;;;;;14.30;4.00;;;;;;;7.54;100.00;99449.97;4873490;29;20029;-74
2024/01/04 00:41:02;;;;;;;12.45;3.70;;;;;;;7.54;100.00;99444.59;4880439;29;20037;-75
2024/01/04 00:43:27;;;;;;;16.70;4.00;;;;;;;7.55;100.00;99451.63;4879388;29;20032;-75
2024/01/04 00:45:52;;;;;;;17.58;3.67;;;;;;;7.52;100.00;99454.56;4878303;29;20021;-75
2024/01/04 00:48:18;;;;;;;17.95;3.35;;;;;;;7.55;100.00;99459.66;4880605;29;20028;-75
2024/01/04 00:50:43;;;;;;;12.13;2.97;;;;;;;7.49;100.00;99463.69;4885321;29;20051;-75
2024/01/04 00:53:09;;;;;;;16.58;3.58;;;;;;;7.48;100.00;99474.50;4878201;29;20060;-74
2024/01/04 00:55:34;;;;;;;8.60;2.55;;;;;;;7.49;100.00;99474.38;4882265;29;20484;-75
2024/01/04 00:58:02;;;;;;;16.17;3.95;;;;;;;7.48;100.00;99485.19;4888773;29;20044;-75
2024/01/04 01:00:27;;;;;;;10.88;3.38;;;;;;;7.48;100.00;99482.53;4875999;29;20061;-75
2024/01/04 01:02:53;;;;;;;11.55;3.17;;;;;;;7.47;100.00;99492.38;4874714;29;20059;-75
2024/01/04 01:05:18;;;;;;;14.25;3.72;;;;;;;7.47;100.00;99496.88;4877620;29;20541;-74
2024/01/04 01:07:43;;;;;;;14.35;3.50;;;;;;;7.47;100.00;99511.09;4880184;29;20084;-74
2024/01/04 01:10:09;;;;;;;11.60;3.08;;;;;;;7.47;100.00;99500.41;4877739;29;20033;-75
2024/01/04 01:12:34;;;;;;;19.25;3.80;;;;;;;7.47;100.00;99511.09;4879577;29;20441;-74
2024/01/04 01:14:59;;;;;;;14.85;4.18;;;;;;;7.47;100.00;99519.09;4877705;29;20040;-75
2024/01/04 01:17:24;;;;;;;16.52;3.83;;;;;;;7.49;100.00;99509.13;4879715;29;20032;-74
2024/01/04 01:19:50;;;;;;;15.77;3.95;;;;;;;7.49;100.00;99521.66;4884660;29;20556;-75
2024/01/04 01:22:15;;;;;;;14.45;3.42;;;;;;;7.49;100.00;99521.66;4884925;29;20033;-75
2024/01/04 01:24:40;;;;;;;17.27;3.80;;;;;;;7.50;100.00;99526.03;4879354;29;20119;-75
2024/01/04 01:27:06;;;;;;;18.13;4.53;;;;;;;7.50;100.00;99523.38;4878305;29;20036;-75
2024/01/04 01:29:31;;;;;;;17.58;3.60;;;;;;;7.51;100.00;99530.38;4878164;29;20079;-74
2024/01/04 01:31:56;;;;;;;14.10;3.55;;;;;;;7.52;100.00;99537.44;4885312;29;20062;-75
2024/01/04 01:34:22;;;;;;;9.43;2.92;;;;;;;7.51;100.00;99543.75;4878621;29;20508;-74
2024/01/04 01:36:47;;;;;;;14.18;3.75;;;;;;;7.52;100.00;99551.66;4884229;29;20049;-75
2024/01/04 01:39:12;;;;;;;15.32;3.65;;;;;;;7.52;100.00;99557.00;4877913;29;20474;-75
2024/01/04 01:41:38;;;;;;;12.73;2.72;;;;;;;7.51;100.00;99558.00;4882052;29;20350;-75
2024/01/04 01:44:03;;;;;;;16.15;3.00;;;;;;;7.51;100.00;99560.66;4881634;29;20188;-75
2024/01/04 01:46:29;;;;;;;11.85;3.35;;;;;;;7.52;100.00;99574.88;4882659;29;20402;-76
2024/01/04 01:48:54;;;;;;;11.70;2.97;;;;;;;7.51;100.00;99570.47;4882160;29;20036;-75
2024/01/04 01:51:19;;;;;;;10.23;3.67;;;;;;;7.53;100.00;99581.94;4879641;29;20073;-75
2024/01/04 01:53:45;;;;;;;15.20;2.85;;;;;;;7.53;100.00;99588.09;4879938;29;20025;-75
2024/01/04 01:56:10;;;;;;;16.52;3.97;;;;;;;7.52;100.00;99585.56;4878397;29;20537;-75
2024/01/04 01:58:36;;;;;;;15.48;3.47;;;;;;;7.52;100.00;99596.25;4885005;29;20075;-75
2024/01/04 02:01:02;;;;;;;14.20;3.70;;;;;;;7.49;100.00;99597.34;4881073;29;20028;-75
2024/01/04 02:03:27;;;;;;;17.55;3.53;;;;;;;7.46;100.00;99597.59;4880163;29;20028;-75
2024/01/04 02:05:53;;;;;;;11.93;3.33;;;;;;;7.46;100.00;99594.09;4878370;29;20036;-76
2024/01/04 02:08:18;;;;;;;20.15;4.00;;;;;;;7.47;100.00;99601.97;4878420;29;20037;-75
2024/01/04 02:10:44;;;;;;;16.08;3.42;;;;;;;7.47;100.00;99609.16;4883478;29;20174;-75
2024/01/04 02:13:10;;;;;;;20.60;3.63;;;;;;;7.45;100.00;99611.09;4875285;29;20025;-75
2024/01/04 02:15:35;;;;;;;17.67;3.13;;;;;;;7.43;100.00;99611.22;4876513;29;20033;-75
2024/01/04 02:18:01;;;;;;;18.15;3.97;;;;;;;7.41;100.00;99621.19;4877048;29;20103;-75
2024/01/04 02:20:26;;;;;;;13.23;3.53;;;;;;;7.40;100.00;99630.16;4880580;29;20111;-75
2024/01/04 02:22:52;;;;;;;16.13;3.80;;;;;;;7.41;100.00;99634.56;4875743;29;20964;-75
2024/01/04 02:25:18;;;;;;;15.73;4.40;;;;;;;7.41;100.00;99633.69;4876196;29;20036;-75
2024/01/04 02:27:43;;;;;;;13.35;3.33;;;;;;;7.41;100.00;99641.72;4881990;29;20051;-75
2024/01/04 02:30:11;;;;;;;12.68;3.88;;;;;;;7.43;100.00;99642.44;4884206;29;20119;-75
2024/01/04 02:32:37;;;;;;;16.90;3.83;;;;;;;7.44;100.00;99646.84;4877014;29;20512;-75
2024/01/04 02:35:02;;;;;;;18.42;4.75;;;;;;;7.45;100.00;99640.50;4876984;29;20029;-75
2024/01/04 02:37:28;;;;;;;19.13;4.13;;;;;;;7.48;100.00;99648.25;4876420;29;20064;-75
2024/01/04 02:39:53;;;;;;;20.67;5.15;;;;;;;7.50;100.00;99659.72;4873295;29;20396;-75
2024/01/04 02:42:18;;;;;;;25.50;4.88;;;;;;;7.50;100.00;99657.03;4879926;29;20044;-75
2024/01/04 02:44:44;;;;;;;14.02;4.13;;;;;;;7.49;100.00;99661.50;4876461;29;20207;-75
2024/01/04 02:47:09;;;;;;;19.42;4.85;;;;;;;7.51;100.00;99664.06;4884998;29;20080;-72
2024/01/04 02:49:34;;;;;;;19.08;4.72;;;;;;;7.50;100.00;99667.72;4887736;29;20052;-73
2024/01/04 02:51:59;;;;;;;13.90;3.58;;;;;;;7.48;100.00;99665.19;4882518;29;20289;-73
2024/01/04 02:54:25;;;;;;;12.65;3.47;;;;;;;7.46;100.00;99667.09;4889740;29;20041;-73
2024/01/04 02:56:50;;;;;;;10.68;2.80;;;;;;;7.45;100.00;99672.56;4888286;29;20032;-73
2024/01/04 02:59:15;;;;;;;9.07;2.95;;;;;;;7.43;100.00;99671.84;4884014;29;20093;-73
2024/01/04 03:01:43;;;;;;;10.70;3.08;;;;;;;7.40;100.00;99682.78;4890499;29;20465;-73
2024/01/04 03:04:09;;;;;;;11.77;2.83;;;;;;;7.34;100.00;99687.63;4891561;29;20223;-74
2024/01/04 03:06:34;;;;;;;7.88;2.17;;;;;;;7.27;100.00;99686.41;4890317;29;20060;-73
2024/01/04 03:09:00;;;;;;;14.02;2.80;;;;;;;7.23;100.00;99687.63;4891710;29;20025;-73
2024/01/04 03:11:25;;;;;;;7.43;2.50;;;;;;;7.20;100.00;99698.56;4891824;29;20061;-73
2024/01/04 03:13:50;;;;;;;12.45;2.88;;;;;;;7.20;100.00;99709.25;4893228;29;20086;-74
2024/01/04 03:16:21;;;;;;;7.80;2.53;;;;;;;7.23;100.00;99703.66;4881963;29;20237;-73
2024/01/04 03:18:46;;;;;;;11.20;2.70;;;;;;;7.23;100.00;99711.66;4892239;29;20032;-72
2024/01/04 03:21:11;;;;;;;11.07;3.15;;;;;;;7.22;100.00;99711.78;4887006;29;20035;-73
2024/01/04 03:23:37;;;;;;;10.80;2.67;;;;;;;7.18;100.00;99711.19;4885405;29;20034;-74
2024/01/04 03:26:02;;;;;;;13.13;3.33;;;;;;;7.18;100.00;99713.88;4888799;29;20721;-74
2024/01/04 03:28:27;;;;;;;13.07;2.92;;;;;;;7.18;100.00;99719.22;4895063;29;20047;-74
2024/01/04 03:30:53;;;;;;;11.55;3.40;;;;;;;7.14;100.00;99715.91;4892281;29;20135;-74
2024/01/04 03:33:18;;;;;;;9.95;2.47;;;;;;;7.11;100.00;99720.66;4891694;29;20507;-73
2024/01/04 03:35:43;;;;;;;13.95;3.28;;;;;;;7.05;100.00;99723.78;4888833;29;20040;-73
2024/01/04 03:38:09;;;;;;;10.50;3.08;;;;;;;6.99;100.00;99717.94;4893822;29;20044;-73
2024/01/04 03:40:34;;;;;;;12.85;4.10;;;;;;;6.96;100.00;99734.22;4895307;29;20033;-73
2024/01/04 03:43:01;;;;;;;15.25;3.88;;;;;;;6.95;100.00;99734.31;4894082;29;20044;-72
2024/01/04 03:45:28;;;;;;;15.90;4.60;;;;;;;6.95;100.00;99735.16;4889662;29;20040;-73
2024/01/04 03:47:53;;;;;;;15.30;3.55;;;;;;;6.96;100.00;99739.56;4891967;29;20061;-73
2024/01/04 03:50:18;;;;;;;17.42;4.60;;;;;;;7.01;100.00;99739.19;4890200;29;20033;-74
2024/01/04 03:52:44;;;;;;;15.25;3.92;;;;;;;7.03;100.00;99744.41;4896070;29;20386;-73
2024/01/04 03:55:09;;;;;;;16.05;4.60;;;;;;;7.06;100.00;99746.84;4892173;29;20029;-73
2024/01/04 03:57:34;;;;;;;17.48;4.50;;;;;;;7.06;100.00;99744.19;4881419;29;20060;-75
2024/01/04 04:00:01;;;;;;;17.67;4.63;;;;;;;7.09;100.00;99754.66;4886746;29;20025;-75
2024/01/04 04:02:26;;;;;;;16.95;4.43;;;;;;;7.12;100.00;99751.75;4886415;29;20484;-75
2024/01/04 04:04:52;;;;;;;15.70;4.85;;;;;;;7.15;100.00;99754.19;4888179;29;20061;-75
2024/01/04 04:07:17;;;;;;;18.10;5.22;;;;;;;7.17;100.00;99757.56;4887243;29;20187;-75
2024/01/04 04:09:42;;;;;;;19.92;5.72;;;;;;;7.20;100.00;99756.50;4878305;29;20469;-75
2024/01/04 04:12:08;;;;;;;17.67;5.05;;;;;;;7.23;100.00;99765.13;4884746;29;20044;-75
2024/01/04 04:14:34;;;;;;;15.02;5.63;;;;;;;7.24;100.00;99771.34;4881708;29;20124;-75
2024/01/04 04:17:02;;;;;;;17.73;5.85;;;;;;;7.28;100.00;99776.31;4884827;29;20033;-75
2024/01/04 04:19:28;;;;;;;19.98;6.07;;;;;;;7.30;100.00;99776.19;4884226;29;20404;-74
2024/01/04 04:21:53;;;;;;;17.58;5.72;;;;;;;7.30;100.00;99774.38;4883212;29;20033;-75
2024/01/04 04:24:19;;;;;;;21.95;6.40;;;;;;;7.32;100.00;99787.63;4879039;29;20037;-74
2024/01/04 04:26:44;;;;;;;20.48;6.43;;;;;;;7.33;100.00;99790.16;4881489;29;20374;-74
2024/01/04 04:29:09;;;;;;;17.38;5.68;;;;;;;7.34;100.00;99791.88;4878522;29;20422;-75
2024/01/04 04:31:35;;;;;;;22.70;6.80;;;;;;;7.36;100.00;99797.09;4882210;29;20028;-74
2024/01/04 04:34:00;;;;;;;20.27;6.03;;;;;;;7.34;100.00;99802.56;4879249;29;20460;-74
2024/01/04 04:36:25;;;;;;;23.08;7.22;;;;;;;7.35;100.00;99788.25;4877099;29;20048;-75
2024/01/04 04:38:51;;;;;;;20.55;6.63;;;;;;;7.35;100.00;99793.59;4880542;29;20029;-74
2024/01/04 04:41:16;;;;;;;17.90;6.07;;;;;;;7.36;100.00;99799.78;4876319;29;20540;-75
2024/01/04 04:43:41;;;;;;;19.08;6.03;;;;;;;7.34;100.00;99807.91;4880591;29;20084;-75
2024/01/04 04:46:09;;;;;;;19.30;6.00;;;;;;;7.33;100.00;99808.88;4879868;29;20484;-75
2024/01/04 04:48:41;;;;;;;17.52;5.40;;;;;;;7.32;100.00;99809.00;4881659;29;20037;-75
2024/01/04 04:51:06;;;;;;;16.15;4.65;;;;;;;7.31;100.00;99810.81;4882932;29;20055;-75
2024/01/04 04:53:31;;;;;;;17.00;4.70;;;;;;;7.30;100.00;99806.44;4885402;29;20136;-75
2024/01/04 04:55:57;;;;;;;17.88;5.05;;;;;;;7.31;100.00;99824.19;4879752;29;20025;-75
2024/01/04 04:58:22;;;;;;;16.05;4.63;;;;;;;7.30;100.00;99819.81;4877001;29;20057;-75
2024/01/04 05:00:47;;;;;;;14.85;4.40;;;;;;;7.31;100.00;99821.53;4877578;29;20047;-75
2024/01/04 05:03:13;;;;;;;15.65;5.20;;;;;;;7.31;100.00;99823.34;4879503;29;20040;-75
2024/01/04 05:05:38;;;;;;;20.48;6.50;;;;;;;7.31;100.00;99831.38;4880025;29;20029;-75
2024/01/04 05:08:07;;;;;;;17.13;5.88;;;;;;;7.30;100.00;99829.66;4891430;29;20025;-72
2024/01/04 05:10:32;;;;;;;23.08;7.03;;;;;;;7.29;100.00;99831.50;4886305;29;20521;-74
2024/01/04 05:12:59;;;;;;;21.08;6.55;;;;;;;7.29;100.00;99828.81;4891051;29;20029;-73
2024/01/04 05:15:25;;;;;;;17.85;6.25;;;;;;;7.28;100.00;99831.59;4888006;29;20040;-75
2024/01/04 05:17:50;;;;;;;18.90;7.30;;;;;;;7.25;100.00;99834.50;4888287;29;20035;-73
2024/01/04 05:20:15;;;;;;;22.80;6.90;;;;;;;7.24;100.00;99840.81;4886104;29;20029;-73
2024/01/04 05:22:41;;;;;;;21.63;6.57;;;;;;;7.18;100.00;99836.78;4894042;29;20036;-73
2024/01/04 05:25:07;;;;;;;19.73;6.82;;;;;;;7.13;100.00;99839.81;4893156;29;20748;-73
2024/01/04 05:27:32;;;;;;;22.23;6.57;;;;;;;7.06;100.00;99845.69;4888018;29;20125;-75
2024/01/04 05:29:58;;;;;;;18.60;5.72;;;;;;;7.00;100.00;99847.03;4880518;29;20421;-73
2024/01/04 05:32:23;;;;;;;19.83;5.43;;;;;;;6.97;100.00;99847.28;4903901;29;20037;-74
2024/01/04 05:34:48;;;;;;;13.68;4.72;;;;;;;6.97;100.00;99855.28;4894176;29;20037;-73
2024/01/04 05:37:14;;;;;;;16.80;5.25;;;;;;;6.91;100.00;99853.03;4883055;29;20140;-73
2024/01/04 05:39:39;;;;;;;14.50;4.00;;;;;;;6.92;100.00;99860.09;4886792;29;20045;-73
2024/01/04 05:42:04;;;;;;;10.13;3.47;;;;;;;6.93;100.00;99851.13;4886270;29;20043;-73
2024/01/04 05:44:30;;;;;;;10.52;3.45;;;;;;;6.91;100.00;99861.94;4887718;29;20116;-73
2024/01/04 05:46:55;;;;;;;9.40;3.17;;;;;;;6.93;100.00;99862.66;4891296;29;20025;-73
2024/01/04 05:49:20;;;;;;;9.15;3.05;;;;;;;6.93;100.00;99873.34;4887455;29;20037;-74
2024/01/04 05:51:45;;;;;;;5.85;2.50;;;;;;;6.92;100.00;99876.13;4890340;29;20057;-73
2024/01/04 05:54:11;;;;;;;11.77;2.97;;;;;;;6.90;100.00;99883.41;4886038;29;20056;-72
2024/01/04 05:56:36;;;;;;;12.75;3.15;;;;;;;6.90;100.00;99878.91;4887344;29;20036;-73
2024/01/04 05:59:02;;;;;;;10.63;3.13;;;;;;;6.91;100.00;99890.44;4889478;29;20033;-72
2024/01/04 06:01:28;;;;;;;8.70;2.63;;;;;;;6.90;100.00;99902.97;4884736;29;20088;-74
2024/01/04 06:03:55;;;;;;;9.10;2.50;;;;;;;6.93;100.00;99905.41;4886016;29;20037;-73
2024/01/04 06:06:21;;;;;;;9.75;3.13;;;;;;;6.94;100.00;99901.78;4891268;29;20142;-73
2024/01/04 06:08:46;;;;;;;15.63;3.40;;;;;;;6.95;100.00;99903.47;4891768;29;20119;-72
2024/01/04 06:11:11;;;;;;;8.60;2.75;;;;;;;6.96;100.00;99913.19;4886414;29;20033;-72
2024/01/04 06:13:36;;;;;;;14.27;3.42;;;;;;;6.97;100.00;99914.91;4894963;29;20036;-72
2024/01/04 06:16:07;;;;;;;11.32;3.97;;;;;;;6.99;100.00;99928.97;4890775;29;20028;-73
2024/01/04 06:18:33;;;;;;;10.15;3.55;;;;;;;7.01;100.00;99923.53;4877853;29;20037;-75
2024/01/04 06:20:58;;;;;;;16.27;3.70;;;;;;;7.01;100.00;99926.19;4880124;29;20024;-75
2024/01/04 06:23:23;;;;;;;10.00;3.38;;;;;;;7.05;100.00;99929.50;4876206;29;20060;-75
2024/01/04 06:25:48;;;;;;;12.55;4.05;;;;;;;7.05;100.00;99929.50;4882666;29;20398;-75
2024/01/04 06:28:14;;;;;;;18.60;4.43;;;;;;;7.05;100.00;99919.66;4883898;29;20476;-74
2024/01/04 06:30:40;;;;;;;11.05;3.72;;;;;;;7.04;100.00;99922.47;4874824;29;20104;-74
2024/01/04 06:33:05;;;;;;;11.98;3.83;;;;;;;7.04;100.00;99931.31;4877818;29;20107;-75
2024/01/04 06:35:30;;;;;;;15.60;4.75;;;;;;;7.05;100.00;99929.50;4876636;29;20033;-75
2024/01/04 06:37:55;;;;;;;11.98;3.97;;;;;;;7.06;100.00;99931.19;4875859;29;20071;-75
2024/01/04 06:40:21;;;;;;;15.55;4.22;;;;;;;7.08;100.00;99935.47;4879784;29;20080;-75
2024/01/04 06:42:53;;;;;;;15.05;4.60;;;;;;;7.10;100.00;99940.69;4877925;29;20124;-75
2024/01/04 06:45:18;;;;;;;14.73;4.53;;;;;;;7.11;100.00;99935.25;4882116;29;20032;-75
2024/01/04 06:47:43;;;;;;;15.73;4.28;;;;;;;7.09;100.00;99941.69;4884817;29;20540;-75
2024/01/04 06:50:09;;;;;;;13.10;4.32;;;;;;;7.04;100.00;99954.50;4880353;29;20654;-75
2024/01/04 06:52:34;;;;;;;14.05;4.55;;;;;;;6.96;100.00;99952.41;4877891;29;20085;-75
2024/01/04 06:55:00;;;;;;;11.85;4.05;;;;;;;6.88;100.00;99960.13;4879263;29;20032;-75
2024/01/04 06:57:25;;;;;;;14.52;4.32;;;;;;;6.87;100.00;99977.09;4879434;29;20055;-75
2024/01/04 06:59:50;;;;;;;14.98;4.10;;;;;;;6.86;100.00;99978.09;4882847;29;20105;-75
2024/01/04 07:02:16;;;;;;;13.80;4.57;;;;;;;6.85;100.00;99979.03;4875960;29;20061;-75
2024/01/04 07:04:42;;;;;;;13.52;4.07;;;;;;;6.86;100.00;99986.09;4875652;29;20029;-75
2024/01/04 07:07:07;;;;;;;17.52;4.40;;;;;;;6.85;100.00;99997.72;4877684;29;20099;-75
2024/01/04 07:09:36;;;;;;;20.48;4.95;;;;;;;6.86;100.00;99994.09;4880842;29;20029;-75
2024/01/04 07:12:02;;;;;;;16.88;5.95;;;;;;;6.86;100.00;99994.09;4882412;29;20408;-75
2024/01/04 07:14:27;;;;;;;16.08;4.65;;;;;;;6.86;100.00;100000.28;4876305;29;20180;-75
2024/01/04 07:16:52;;;;;;;20.05;4.70;;;;;;;6.87;100.00;99990.44;4874694;29;20053;-75
2024/01/04 07:19:18;;;;;;;15.48;4.53;;;;;;;6.90;100.00;99998.28;4880591;29;20114;-75
2024/01/04 07:21:43;;;;;;;14.65;4.05;;;;;;;6.89;100.00;100000.06;4883918;29;20024;-75
2024/01/04 07:24:09;;;;;;;16.50;4.55;;;;;;;6.93;100.00;100006.06;4873105;29;20433;-75
2024/01/04 07:26:35;;;;;;;17.55;4.55;;;;;;;6.96;100.00;99995.16;4881112;29;20676;-74
2024/01/04 07:29:00;;;;;;;20.13;5.13;;;;;;;6.96;100.00;100005.84;4878823;29;20139;-74
2024/01/04 07:31:26;;;;;;;17.60;5.10;;;;;;;6.98;100.00;100015.47;4873845;29;20033;-74
2024/01/04 07:33:51;;;;;;;15.15;4.75;;;;;;;6.97;100.00;100008.41;4873163;29;20040;-74
2024/01/04 07:36:16;;;;;;;22.73;6.22;;;;;;;6.94;100.00;100016.63;4876169;29;20041;-74
2024/01/04 07:38:42;;;;;;;16.90;5.35;;;;;;;6.88;100.00;100019.75;4877118;29;20528;-74
2024/01/04 07:41:07;;;;;;;17.60;6.65;;;;;;;6.85;100.00;100016.44;4877051;29;20025;-74
2024/01/04 07:43:33;;;;;;;22.02;6.85;;;;;;;6.82;100.00;100020.16;4878145;29;20108;-74
2024/01/04 07:45:59;;;;;;;16.33;5.78;;;;;;;6.76;100.00;100029.47;4879105;29;20029;-74
2024/01/04 07:48:25;;;;;;;18.80;6.00;;;;;;;6.74;100.00;100031.41;4874751;29;20071;-74
2024/01/04 07:50:51;;;;;;;17.30;6.70;;;;;;;6.72;100.00;100040.47;4883529;29;20025;-74
2024/01/04 07:53:16;;;;;;;19.35;6.53;;;;;;;6.71;100.00;100044.13;4881212;29;20112;-74
2024/01/04 07:55:41;;;;;;;19.08;6.47;;;;;;;6.70;100.00;100045.09;4876902;29;20029;-74
2024/01/04 07:58:07;;;;;;;18.10;5.80;;;;;;;6.70;100.00;100045.09;4880294;29;20068;-74
2024/01/04 08:00:32;;;;;;;18.55;6.40;;;;;;;6.70;100.00;100056.59;4879564;29;20348;-74
2024/01/04 08:02:57;;;;;;;20.92;6.90;;;;;;;6.74;100.00;100062.59;4873190;29;20033;-74
2024/01/04 08:05:22;;;;;;;21.90;6.63;;;;;;;6.77;100.00;100059.72;4878506;29;20039;-74
2024/01/04 08:07:48;;;;;;;20.45;6.35;;;;;;;6.78;100.00;100072.13;4880410;29;20481;-74
2024/01/04 08:10:13;;;;;;;21.90;5.72;;;;;;;6.82;100.00;100068.25;4881564;29;20055;-74
2024/01/04 08:12:42;;;;;;;21.13;5.82;;;;;;;6.85;100.00;100062.69;4879869;29;20365;-74
2024/01/04 08:15:08;;;;;;;19.13;5.55;;;;;;;6.89;100.00;100069.53;4879861;29;20040;-74
2024/01/04 08:17:35;;;;;;;14.35;4.28;;;;;;;6.93;100.00;100076.34;4877034;29;20033;-74
2024/01/04 08:20:00;;;;;;;19.50;4.65;;;;;;;6.96;100.00;100069.94;4885013;29;20029;-74
2024/01/04 08:22:25;;;;;;;13.18;4.00;;;;;;;6.98;100.00;100078.69;4878010;29;20029;-74
2024/01/04 08:24:51;;;;;;;14.45;4.05;;;;;;;6.99;100.00;100081.25;4882871;29;20036;-74
2024/01/04 08:27:19;;;;;;;12.98;3.67;;;;;;;6.98;100.00;100071.56;4872576;29;20029;-74
2024/01/04 08:29:49;;;;;;;10.98;3.50;;;;;;;7.02;100.00;100072.19;4878902;29;20033;-74
2024/01/04 08:32:16;;;;;;;15.07;3.83;;;;;;;6.99;100.00;100075.91;4877864;29;20357;-74
2024/01/04 08:34:42;;;;;;;14.07;3.45;;;;;;;6.97;100.00;100080.53;4881732;29;20064;-74
2024/01/04 08:37:07;;;;;;;11.90;3.38;;;;;;;6.97;100.00;100083.19;4880112;29;20095;-74
2024/01/04 08:39:32;;;;;;;9.63;3.17;;;;;;;6.95;100.00;100084.25;4876094;29;20540;-75
2024/01/04 08:41:58;;;;;;;15.48;4.07;;;;;;;6.95;100.00;100085.09;4880215;29;20028;-75
2024/01/04 08:44:23;;;;;;;10.63;3.55;;;;;;;6.92;100.00;100081.81;4875850;29;20021;-75
2024/01/04 08:46:50;;;;;;;11.35;3.25;;;;;;;6.95;100.00;100092.28;4877790;29;20031;-75
2024/01/04 08:49:16;;;;;;;10.60;3.38;;;;;;;6.94;100.00;100094.09;4874995;29;20498;-75
2024/01/04 08:51:41;;;;;;;13.63;3.00;;;;;;;6.95;100.00;100092.28;4880020;29;20033;-75
2024/01/04 08:54:06;;;;;;;8.93;3.13;;;;;;;6.95;100.00;100090.44;4880910;29;20056;-75
2024/01/04 08:56:32;;;;;;;11.82;3.80;;;;;;;6.96;100.00;100102.84;4877629;29;20135;-75
2024/01/04 08:58:57;;;;;;;16.38;4.10;;;;;;;6.96;100.00;100107.34;4875871;29;20025;-75
2024/01/04 09:01:22;;;;;;;12.60;3.53;;;;;;;6.97;100.00;100104.56;4882394;29;20532;-75
2024/01/04 09:03:48;;;;;;;9.90;3.35;;;;;;;7.01;100.00;100115.88;4875571;29;20504;-75
2024/01/04 09:06:14;;;;;;;9.07;2.92;;;;;;;7.03;100.00;100115.78;4879297;29;20445;-75
2024/01/04 09:08:39;;;;;;;9.15;3.38;;;;;;;7.06;100.00;100107.53;4883205;29;20032;-75
2024/01/04 09:11:06;;;;;;;9.65;3.05;;;;;;;7.08;100.00;100116.31;4880832;29;20021;-75
2024/01/04 09:13:31;;;;;;;8.18;2.80;;;;;;;7.11;100.00;100118.78;4886130;29;20039;-75
2024/01/04 09:15:58;;;;;;;8.75;2.75;;;;;;;7.15;100.00;100125.63;4881822;29;20025;-74
2024/01/04 09:18:23;;;;;;;8.65;2.70;;;;;;;7.18;100.00;100128.91;4877467;29;20108;-75
2024/01/04 09:20:48;;;;;;;7.32;2.22;;;;;;;7.20;100.00;100128.81;4881270;29;20516;-75
2024/01/04 09:23:14;;;;;;;9.50;2.40;;;;;;;7.23;100.00;100130.41;4882598;29;20037;-74
2024/01/04 09:25:39;;;;;;;5.25;1.92;;;;;;;7.24;100.00;100132.13;4876674;29;20410;-75
2024/01/04 09:28:04;;;;;;;5.82;2.03;;;;;;;7.27;100.00;100132.75;4871108;29;20195;-75
2024/01/04 09:30:30;;;;;;;6.38;1.90;;;;;;;7.32;100.00;100135.97;4873522;29;20508;-75
2024/01/04 09:32:55;;;;;;;6.03;2.10;;;;;;;7.39;100.00;100146.22;4872206;29;20167;-75
2024/01/04 09:35:22;;;;;;;7.07;2.05;;;;;;;7.45;100.00;100146.66;4880000;29;20028;-74
2024/01/04 09:37:50;;;;;;;6.68;1.88;;;;;;;7.50;100.00;100148.97;4885174;29;20516;-75
2024/01/04 09:40:15;;;;;;;7.40;2.70;;;;;;;7.52;100.00;100147.88;4880474;29;20552;-74
2024/01/04 09:42:41;;;;;;;7.93;2.33;;;;;;;7.53;100.00;100154.94;4880965;29;20116;-74
2024/01/04 09:45:10;;;;;;;6.68;2.42;;;;;;;7.51;100.00;100158.69;4880774;29;20028;-75
2024/01/04 09:47:38;;;;;;;;;;;;;;;7.59;100.00;100161.69;4882896;29;20188;-73
2024/01/04 09:50:04;;;;;;;4.38;1.85;;;;;;;7.52;100.00;100161.25;4889129;29;19922;-73
2024/01/04 09:52:32;;;;;;;6.68;2.50;;;;;;;7.51;100.00;100177.41;4886925;29;20040;-73
2024/01/04 09:54:58;;;;;;;9.10;2.10;;;;;;;7.48;100.00;100174.97;4891171;29;20045;-73
2024/01/04 09:57:24;;;;;;;5.65;2.08;;;;;;;7.48;100.00;100174.97;4885458;29;20024;-72
2024/01/04 09:59:49;;;;;;;6.93;2.45;;;;;;;7.46;100.00;100180.41;4889356;29;20048;-72
2024/01/04 10:02:17;;;;;;;4.70;1.95;;;;;;;7.46;100.00;100184.91;4885697;29;20180;-71
2024/01/04 10:04:44;;;;;;;8.48;2.70;;;;;;;7.47;100.00;100189.31;4880073;29;20378;-72
2024/01/04 10:07:10;;;;;;;10.02;2.88;;;;;;;7.47;100.00;100197.34;4882555;29;20033;-72
2024/01/04 10:09:55;;;;;;;9.98;2.58;;;;;;;7.47;100.00;100194.66;4884399;29;20044;-72
2024/01/04 10:12:21;;;;;;;6.55;2.58;;;;;;;7.47;100.00;100200.00;4877236;29;20536;-72
2024/01/04 10:14:48;;;;;;;8.10;2.83;;;;;;;7.48;100.00;100204.38;4885390;29;20085;-72
2024/01/04 10:17:13;;;;;;;11.23;2.80;;;;;;;7.43;100.00;100201.19;4889979;29;20028;-72
2024/01/04 10:19:40;;;;;;;9.45;2.90;;;;;;;7.44;100.00;100208.25;4886446;29;20425;-72
2024/01/04 10:22:06;;;;;;;10.75;3.40;;;;;;;7.43;100.00;100206.53;4874272;29;20037;-71
2024/01/04 10:24:41;;;;;;;10.70;3.25;;;;;;;7.43;100.00;100212.72;4883723;29;20029;-71
2024/01/04 10:27:08;;;;;;;8.48;2.90;;;;;;;7.44;100.00;100209.09;4874733;29;20028;-71
2024/01/04 10:29:35;;;;;;;10.98;2.50;;;;;;;7.48;100.00;100210.59;4878091;29;20521;-71
2024/01/04 10:32:02;;;;;;;5.18;2.25;;;;;;;7.51;100.00;100205.03;4875734;29;20159;-71
2024/01/04 10:34:28;;;;;;;7.15;2.30;;;;;;;7.53;100.00;100218.28;4879904;29;20112;-72
2024/01/04 10:36:55;;;;;;;5.80;2.13;;;;;;;7.58;100.00;100209.94;4880616;29;20573;-71
2024/01/04 10:39:20;;;;;;;7.13;2.33;;;;;;;7.61;100.00;100205.19;4877479;29;20123;-72
2024/01/04 10:42:01;;;;;;;6.75;2.22;;;;;;;7.66;100.00;100220.94;4875730;29;20120;-72
2024/01/04 10:44:27;;;;;;;4.97;1.98;;;;;;;7.67;100.00;100212.81;4871122;29;20043;-72
2024/01/04 10:47:01;;;;;;;8.05;2.20;;;;;;;7.70;100.00;100217.94;4883617;29;20033;-72
2024/01/04 10:49:26;;;;;;;2.78;1.67;;;;;;;7.68;100.00;100210.97;4880598;29;20088;-72
2024/01/04 10:51:56;;;;;;;4.05;1.42;;;;;;;7.70;100.00;100214.38;4880004;29;20021;-73
2024/01/04 10:54:29;;;;;;;5.22;2.05;;;;;;;7.76;100.00;100218.44;4877651;29;20388;-72
2024/01/04 10:56:57;;;;;;;4.80;1.70;;;;;;;7.82;100.00;100218.03;4875431;29;20033;-72
2024/01/04 10:59:23;;;;;;;5.68;1.75;;;;;;;7.83;100.00;100217.03;4872561;29;20397;-74
2024/01/04 11:01:49;;;;;;;4.95;1.13;;;;;;;7.84;100.00;100219.59;4874717;29;20329;-74
2024/01/04 11:04:15;;;;;;;7.18;1.73;;;;;;;7.86;100.00;100222.16;4875663;29;20129;-74
2024/01/04 11:06:41;;;;;;;9.35;1.77;;;;;;;7.83;100.00;100219.72;4873766;29;20029;-73
2024/01/04 11:09:09;;;;;;;5.70;1.70;;;;;;;7.83;100.00;100220.59;4880137;29;20529;-74
2024/01/04 11:11:38;;;;;;;7.47;1.95;;;;;;;7.84;100.00;100219.59;4881481;29;20032;-74
2024/01/04 11:14:03;;;;;;;10.27;2.30;;;;;;;7.88;100.00;100233.63;4876873;29;20071;-74
2024/01/04 11:16:43;;;;;;;4.25;1.35;;;;;;;7.92;100.00;100229.78;4876639;29;20112;-73
2024/01/04 11:19:41;;;;;;;5.43;1.05;;;;;;;7.96;100.00;100223.22;4874190;29;20037;-74